METAR Data
IDs: Format: Raw Decoded Include TAF

Data at: 0202 UTC 03 Jul 2022

VTUK 030100Z 21008KT 9999 FEW030 BKN080 27/24 Q1005 NOSIG
VTUK 030000Z 21006KT 180V240 9999 FEW030 BKN080 26/23 Q1004 NOSIG
VTUK 022300Z 20007KT 9999 FEW030 BKN080 26/23 Q1004 NOSIG
VTUK 022200Z 20007KT 9000 FEW030 BKN080 26/24 Q1004 NOSIG
VTUK 022100Z 22007KT 9000 FEW030 BKN080 26/24 Q1004 NOSIG
VTUK 022000Z 23008KT 9000 FEW030 BKN080 26/23 Q1003 NOSIG
VTUK 021900Z 20009KT 9000 FEW030 BKN080 26/24 Q1004 NOSIG
VTUK 021800Z 21008KT 9000 FEW030 BKN080 26/23 Q1004 NOSIG
VTUK 021700Z 21008KT 9000 FEW030 BKN080 28/23 Q1005 NOSIG
VTUK 021600Z 23007KT 9000 FEW030 BKN080 29/23 Q1004 NOSIG
VTUK 021500Z 21007KT 9000 FEW030 BKN080 29/23 Q1004 NOSIG
VTUK 021400Z 22006KT 9999 FEW030 BKN080 30/23 Q1003 NOSIG
VTUK 021300Z 22005KT 9999 FEW030 BKN080 30/23 Q1002 NOSIG
VTUK 021200Z 24006KT 9999 FEW030 BKN080 31/23 Q1002 NOSIG
VTUK 021100Z 23007KT 200V260 9999 SCT030 BKN080 31/23 Q1000 NOSIG
VTUK 021000Z 25004KT 210V280 9999 SCT030 BKN080 32/23 Q1000 NOSIG
VTUK 020900Z 23007KT 9999 SCT030 BKN080 32/23 Q1000 NOSIG
VTUK 020800Z 24009KT 200V270 9999 SCT030 BKN080 32/23 Q1000 NOSIG
VTUK 020700Z 23008KT 210V270 9999 SCT030 BKN080 31/23 Q1001 NOSIG
VTUK 020600Z 22008KT 190V250 9999 SCT030 BKN080 31/23 Q1002 NOSIG
VTUK 020500Z 24007KT 190V280 9999 SCT030 BKN080 31/24 Q1003 NOSIG
VTUK 020400Z 21008KT 180V260 9999 FEW030 BKN080 30/24 Q1003 NOSIG
VTUK 020300Z 21006KT 190V250 9999 FEW030 BKN080 29/25 Q1004 NOSIG
VTUK 020200Z 22006KT 190V250 9999 FEW030 BKN080 27/25 Q1004 NOSIG
VTUK 020100Z 20006KT 9999 FEW030 BKN080 27/25 Q1004 NOSIG
VTUK 020000Z 20004KT 9000 FEW030 BKN080 26/25 Q1003 NOSIG
VTUK 012300Z 21004KT 8000 -RA FEW030 BKN080 26/24 Q1003 NOSIG
VTUK 012200Z 20005KT 9000 FEW030 BKN100 26/24 Q1002 NOSIG
VTUK 012100Z 22006KT 9000 FEW030 BKN100 27/23 Q1002 NOSIG
VTUK 012000Z 20005KT 9000 FEW030 SCT080 27/23 Q1002 NOSIG
VTUK 011900Z 24007KT 200V270 9000 FEW030 SCT080 27/23 Q1002 NOSIG
VTUK 011800Z 24006KT 210V280 9000 FEW030 SCT080 28/24 Q1003 NOSIG
VTUK 011700Z 02003KT 9000 FEW030 SCT080 27/25 Q1003 NOSIG
VTUK 011600Z 33005KT 310V020 9000 SCT030 BKN080 28/25 Q1004 NOSIG
VTUK 011500Z VRB02KT 9000 SCT030 BKN080 28/24 Q1003 NOSIG

VTUD 030100Z 13003KT 100V160 9999 FEW030 BKN080 28/23 Q1004 NOSIG
VTUD 030000Z 18003KT 9999 FEW030 BKN080 27/23 Q1003 NOSIG
VTUD 022300Z 08002KT 9999 FEW030 BKN080 26/24 Q1002 NOSIG
VTUD 022200Z VRB01KT 9999 FEW030 26/24 Q1002 NOSIG
VTUD 021500Z 16003KT 9999 FEW030 27/24 Q1003 NOSIG
VTUD 021400Z 27004KT 240V300 9999 FEW030 28/24 Q1002 NOSIG
VTUD 021300Z 15004KT 120V190 9999 FEW030 28/25 Q1001 NOSIG
VTUD 021200Z 14004KT 9999 FEW030 28/25 Q1000 NOSIG
VTUD 021100Z 16005KT 9999 FEW030 29/24 Q1000 NOSIG
VTUD 021000Z 14005KT 110V170 9999 FEW030 29/24 Q0999 NOSIG
VTUD 020900Z 12006KT 9999 FEW030 BKN100 28/25 Q0999 NOSIG
VTUD 020800Z 11003KT 070V140 8000 -RA BKN030 BKN100 25/25 Q1000 RERA NOSIG
VTUD 020700Z 20012KT 160V230 1000 R30/0900 +TSRA FEW018CB BKN020 BKN100 26/23 Q1001 TEMPO TL0830 1500 +TSRA
VTUD 020600Z 08004KT 020V140 9999 BKN020 BKN100 31/24 Q1001 NOSIG
VTUD 020500Z VRB03KT 9999 BKN020 BKN100 31/24 Q1002 NOSIG
VTUD 020400Z 19004KT 150V250 9999 BKN010 BKN100 29/25 Q1003 NOSIG
VTUD 020300Z 16005KT 130V190 9999 BKN008 BKN100 27/25 Q1003 NOSIG
VTUD 020200Z 14003KT 100V170 9999 BKN008 BKN100 26/25 Q1003 NOSIG
VTUD 020100Z 10003KT 070V150 9000 -RA BKN030 BKN100 25/24 Q1003 NOSIG
VTUD 020000Z 09002KT 9000 -RA BKN030 BKN100 25/24 Q1003 NOSIG
VTUD 012300Z 00000KT 9000 -RA BKN030 BKN100 25/24 Q1002 NOSIG
VTUD 012200Z 00000KT 9999 -RA BKN030 BKN100 25/24 Q1002 NOSIG
VTUD 011500Z 01003KT 330V060 9999 FEW006 26/25 Q1003 NOSIG

VTUL 030100Z VRB02KT 9999 BKN025 27/24 Q1004 NOSIG
VTUL 030000Z 00000KT 9999 BKN025 26/24 Q1003 NOSIG
VTUL 022300Z 00000KT 9999 BKN025 25/24 Q1003 NOSIG
VTUL 021200Z 00000KT 9999 BKN025 29/24 Q1001 NOSIG
VTUL 021100Z 24005KT 210V270 9999 BKN025 31/23 Q1000 NOSIG
VTUL 021000Z 24007KT 210V270 9999 BKN025 31/23 Q1000 NOSIG
VTUL 020900Z 24005KT 170V280 9999 BKN025 32/24 Q1000 NOSIG
VTUL 020800Z 22006KT 9999 BKN025 32/23 Q1000 NOSIG
VTUL 020700Z VRB03KT 9999 BKN025 32/23 Q1001 NOSIG
VTUL 020600Z VRB04KT 9999 BKN025 32/24 Q1002 NOSIG
VTUL 020500Z 26008KT 230V300 9999 BKN025 31/23 Q1002 NOSIG
VTUL 020400Z VRB04KT 9999 BKN025 30/24 Q1003 NOSIG
VTUL 020300Z 14003KT 9999 BKN025 29/24 Q1003 NOSIG
VTUL 020200Z 00000KT 9999 BKN025 28/24 Q1003 NOSIG
VTUL 020100Z 00000KT 9999 BKN030 27/24 Q1003 NOSIG
VTUL 020000Z 00000KT 9999 BKN030 26/25 Q1003 NOSIG
VTUL 012300Z 00000KT 9999 BKN030 26/24 Q1002 NOSIG

VTUI 030100Z 19006KT 160V220 9999 SCT020 BKN060 28/24 Q1004 NOSIG
VTUI 030000Z 19004KT 9999 FEW020 BKN060 26/24 Q1003 NOSIG
VTUI 022300Z 20005KT 9999 SCT020 BKN060 26/24 Q1003 NOSIG
VTUI 021100Z 19005KT 9999 SCT025 BKN060 28/26 Q1000 RETS NOSIG
VTUI 021000Z 17006KT 9999 -TSRA FEW015CB BKN030 28/25 Q1000 NOSIG
VTUI 020900Z 22003KT 170V280 9999 FEW015CB SCT030 BKN070 31/25 Q0999 NOSIG
VTUI 020800Z 23004KT 200V260 9999 SCT020 BKN060 31/24 Q1000 NOSIG
VTUI 020700Z 23005KT 190V290 9999 SCT020 BKN060 31/25 Q1000 NOSIG
VTUI 020600Z 22005KT 190V250 9999 SCT020 BKN060 30/25 Q1001 NOSIG
VTUI 020500Z 23004KT 200V280 9999 SCT020 BKN060 30/25 Q1002 NOSIG
VTUI 020400Z VRB02KT 9999 BKN020 OVC060 29/25 Q1002 NOSIG
VTUI 020300Z VRB02KT 9999 SCT010 BKN025 28/26 Q1003 NOSIG
VTUI 020200Z VRB02KT 9999 SCT010 BKN030 27/25 Q1003 NOSIG
VTUI 020100Z VRB02KT 9999 SCT010 BKN030 25/25 Q1003 NOSIG
VTUI 020000Z 29003KT 240V360 9999 -DZ SCT009 OVC030 25/24 Q1003 NOSIG
VTUI 012300Z 28003KT 9999 FEW025 BKN080 25/25 Q1002 NOSIG
VTUI 011500Z 00000KT 9999 TS FEW025CB BKN030 27/27 Q1002 TEMPO 4000 TSRA

VTUW 030100Z 22005KT 9999 FEW020 26/24 Q1004 NOSIG
VTUW 030000Z VRB02KT 9999 FEW005 SCT015 25/25 Q1004 NOSIG
VTUW 021300Z 08003KT 050V110 CAVOK 25/25 Q1002 NOSIG
VTUW 021200Z 15003KT 120V200 9999 FEW018CB BKN035 BKN050 26/26 Q1001 RERA NOSIG
VTUW 021100Z 10001KT 9999 SCT030 28/26 Q1000 NOSIG
VTUW 021000Z VRB02KT 9999 SCT030 SCT090 29/25 Q1000 NOSIG
VTUW 020900Z 00000KT 9999 SCT030 28/25 Q1000 NOSIG
VTUW 020800Z 00000KT 9999 SCT030 27/25 Q1000 NOSIG
VTUW 020700Z 21005KT 9999 4500W RA FEW015 BKN030 27/25 Q1001 TEMPO TL0740 6000 RA
VTUW 020600Z VRB02KT 9999 FEW035 BKN050 29/25 Q1001 NOSIG
VTUW 020500Z VRB01KT 9999 SCT015 BKN040 29/24 Q1002 NOSIG
VTUW 020400Z VRB01KT 9999 FEW013 BKN019 27/24 Q1003 NOSIG
VTUW 020300Z 36003KT 330V030 9999 SCT008 BKN017 26/24 Q1003 NOSIG
VTUW 020200Z 33003KT 9999 BKN008 BKN013 25/24 Q1004 NOSIG
VTUW 020100Z VRB02KT 9999 SCT009 BKN013 25/25 Q1003 NOSIG
VTUW 020000Z 36002KT 9999 FEW005 BKN010 25/25 Q1003 NOSIG